Latest Weather Observations for Cooktown

IDQ60801

Issued at 12:01 pm EST Wednesday 5 August 2015 (issued every 30 minutes, with the page automatically refreshed every 10 minutes)

About weather observations | Map of weather stations | Latest weather observations for QLD | Other Formats
Station Details ID: 031209 Name: COOKTOWN AIRPORT Lat: -15.45 Lon: 145.19 Height: 4.8 m
Data from the previous 72 hours. | See also: Recent months at Cooktown
Date/Time
EST
Temp
°C
App
Temp
°C
Dew
Point
Rel
Hum
%
Delta-T
°C
Wind Press
QNH
hPa
Press
MSL
hPa
Rain
since 9 am
mm
Dir
 
Spd
km/h
Gust
km/h
Spd
kts
Gust
kts
05/12:00pm 25.6 24.4 18.5 65 4.5 SE 22 39 12 21 1015.8 1015.9 0.0
05/11:30am 25.1 23.7 17.9 64 4.5 ESE 22 32 12 17 1016.1 - 0.0
05/11:00am 25.9 24.7 18.3 63 4.8 ESE 22 32 12 17 1016.4 - 0.0
05/10:30am 25.8 25.0 18.4 63 4.7 E 20 30 11 16 1016.4 - 0.0
05/10:00am 24.5 24.0 18.7 70 3.7 ESE 19 30 10 16 1016.6 - 0.0
05/09:30am 24.0 24.2 18.6 72 3.4 SE 15 20 8 11 1016.5 - 0.0
05/09:00am 21.7 23.7 18.7 83 1.9 SW 6 7 3 4 1016.2 1016.2 0.0
05/08:30am 20.3 21.7 17.9 86 1.5 NW 7 7 4 4 1015.9 - 0.0
05/08:00am 18.9 20.3 17.4 91 0.9 WSW 6 7 3 4 1015.5 - 0.0
05/07:30am 17.1 19.3 16.6 97 0.3 CALM 0 0 0 0 1015.3 - 0.0
05/07:00am 15.6 16.6 15.3 98 0.2 WNW 4 7 2 4 1015.0 - 0.0
05/06:30am 15.5 16.0 15.0 97 0.3 W 6 7 3 4 1014.7 - 0.0
05/06:00am 15.9 16.5 15.4 97 0.3 WNW 6 7 3 4 1014.4 1014.3 0.0
05/05:30am 16.1 16.7 15.8 98 0.2 WNW 7 7 4 4 1014.0 - 0.0
05/05:00am 16.3 17.1 15.8 97 0.3 WNW 6 9 3 5 1013.9 - 0.0
05/04:30am 16.2 16.9 15.7 97 0.3 WNW 6 7 3 4 1013.9 - 0.0
05/04:00am 17.0 18.7 16.3 96 0.4 W 2 6 1 3 1013.8 - 0.0
05/03:30am 17.4 19.7 16.7 96 0.4 CALM 0 2 0 1 1013.9 - 0.0
05/03:09am 17.4 18.9 16.7 96 0.4 S 4 7 2 4 1013.9 - 0.0
05/03:00am 17.8 20.2 17.1 96 0.4 CALM 0 0 0 0 1014.0 1014.0 0.0
05/02:57am 17.8 20.2 17.1 96 0.4 CALM 0 0 0 0 1014.0 - 0.0
05/02:30am 18.2 19.5 17.2 94 0.6 S 6 7 3 4 1014.0 - 0.0
05/02:00am 19.9 21.3 18.6 92 0.8 SSE 9 11 5 6 1014.2 - 0.0
05/01:30am 20.8 22.2 18.7 88 1.3 SSE 9 13 5 7 1014.5 - 0.0
05/01:00am 20.6 22.1 18.8 89 1.1 SSE 9 13 5 7 1014.8 - 0.0
05/12:30am 20.7 22.2 18.8 89 1.2 SSE 9 13 5 7 1015.1 - 0.0
05/12:28am 20.7 22.1 18.6 88 1.3 SSE 9 13 5 7 1015.1 - 0.0
05/12:00am 21.1 23.0 18.9 87 1.4 SSE 7 9 4 5 1015.2 1015.2 0.0
 
Date/Time
EST
Temp
°C
App
Temp
°C
Dew
Point
Rel
Hum
%
Delta-T
°C
Wind Press
QNH
hPa
Press
MSL
hPa
Rain
since 9 am
mm
Dir
 
Spd
km/h
Gust
km/h
Spd
kts
Gust
kts
04/11:47pm 21.1 23.0 19.0 88 1.3 SSE 7 13 4 7 1015.2 - 0.0
04/11:30pm 21.2 23.1 19.0 87 1.4 SE 7 11 4 6 1015.2 - 0.0
04/11:00pm 21.4 23.5 18.9 86 1.6 SE 6 11 3 6 1015.4 - 0.0
04/10:30pm 21.5 23.4 19.0 86 1.6 SE 7 11 4 6 1015.3 - 0.0
04/10:25pm 21.6 23.6 19.1 86 1.6 SE 7 11 4 6 1015.3 - 0.0
04/10:00pm 21.9 24.1 19.1 84 1.8 SSE 6 9 3 5 1015.4 - 0.0
04/09:50pm 21.7 23.5 18.7 83 1.9 ESE 7 11 4 6 1015.3 - 0.0
04/09:30pm 22.1 23.0 18.4 79 2.3 ESE 11 20 6 11 1015.3 - 0.0
04/09:00pm 22.0 22.2 18.5 80 2.2 SE 15 24 8 13 1015.1 1015.1 0.0
04/08:30pm 21.9 22.5 18.6 81 2.1 SE 13 22 7 12 1014.8 - 0.0
04/08:00pm 21.7 22.7 18.7 83 1.9 SE 11 20 6 11 1014.5 - 0.0
04/07:30pm 21.7 22.9 19.0 84 1.7 ESE 11 17 6 9 1014.2 - 0.0
04/07:00pm 21.1 23.2 19.0 88 1.3 E 6 11 3 6 1014.0 - 0.0
04/06:30pm 20.9 21.8 18.5 86 1.5 ESE 11 13 6 7 1013.9 - 0.0
04/06:00pm 22.3 22.3 19.0 81 2.1 E 17 22 9 12 1013.7 1013.7 0.0
04/05:30pm 23.2 23.0 18.6 75 2.9 E 17 24 9 13 1013.7 - 0.0
04/05:00pm 24.1 23.1 18.0 68 3.8 E 20 26 11 14 1013.5 - 0.0
04/04:30pm 24.3 22.4 17.7 66 4.1 ESE 24 32 13 17 1013.4 - 0.0
04/04:00pm 24.9 23.6 18.1 66 4.3 E 22 33 12 18 1013.3 - 0.0
04/03:30pm 25.6 24.1 17.8 62 4.9 E 22 30 12 16 1013.2 - 0.0
04/03:00pm 25.7 23.7 17.4 60 5.2 E 24 30 13 16 1013.3 1013.2 0.0
04/02:30pm 26.1 24.2 17.7 60 5.3 ESE 24 28 13 15 1013.5 - 0.0
04/02:00pm 26.3 23.9 15.4 51 6.6 E 22 30 12 16 1013.9 - 0.0
04/01:30pm 26.6 24.8 16.0 52 6.5 ENE 20 28 11 15 1014.4 - 0.0
04/01:00pm 26.6 25.1 16.2 52 6.4 E 19 26 10 14 1015.0 - 0.0
04/12:30pm 26.3 25.9 16.2 53 6.2 E 13 20 7 11 1015.4 - 0.0
04/12:00pm 26.1 25.8 16.5 55 5.9 ESE 13 24 7 13 1015.8 1015.9 0.0
04/11:30am 26.0 25.8 16.6 56 5.8 E 13 24 7 13 1016.2 - 0.0
04/11:00am 25.5 25.5 17.3 60 5.1 ESE 13 19 7 10 1016.5 - 0.0
04/10:30am 25.1 24.9 17.6 63 4.7 ESE 15 20 8 11 1016.9 - 0.0
04/10:00am 24.7 26.3 18.2 67 4.1 SSE 7 11 4 6 1017.1 - 0.0
04/09:30am 23.7 26.0 18.5 72 3.3 SW 4 9 2 5 1017.2 - 0.0
04/09:00am 21.6 23.0 17.7 78 2.4 WSW 7 9 4 5 1017.1 1017.1 0.0
04/08:30am 20.7 23.6 18.1 85 1.6 CALM 0 0 0 0 1016.8 - 0.0
04/08:00am 17.6 18.7 16.6 94 0.6 WNW 6 7 3 4 1016.6 - 0.0
04/07:30am 15.7 16.2 15.0 96 0.4 WNW 6 7 3 4 1016.3 - 0.0
04/07:00am 14.1 14.9 13.7 97 0.2 W 2 6 1 3 1015.9 - 0.0
04/06:30am 14.3 14.2 13.8 97 0.3 WNW 7 9 4 5 1015.8 - 0.0
04/06:00am 14.7 14.9 14.2 97 0.3 WNW 6 7 3 4 1015.5 1015.5 0.0
04/05:30am 14.4 15.6 13.9 97 0.3 CALM 0 0 0 0 1015.3 - 0.0
04/05:00am 14.4 15.7 14.0 97 0.2 CALM 0 0 0 0 1015.1 - 0.0
04/04:30am 15.2 15.4 14.7 97 0.3 W 7 9 4 5 1014.9 - 0.0
04/04:00am 15.2 15.4 14.7 97 0.3 WNW 7 9 4 5 1014.9 - 0.0
04/03:30am 14.9 15.2 14.4 97 0.3 NW 6 7 3 4 1015.1 - 0.0
04/03:00am 15.3 15.7 14.8 97 0.3 NW 6 6 3 3 1015.2 1015.2 0.0
04/02:30am 15.2 16.3 14.5 96 0.4 WNW 2 6 1 3 1015.3 - 0.0
04/02:00am 15.4 15.8 14.7 96 0.4 WNW 6 7 3 4 1015.6 - 0.0
04/01:30am 15.4 15.9 14.9 97 0.3 WNW 6 7 3 4 1015.9 - 0.0
04/01:00am 15.1 16.2 14.6 97 0.3 W 2 6 1 3 1016.1 - 0.0
04/12:30am 15.5 15.3 14.8 96 0.4 NW 9 9 5 5 1016.3 - 0.0
04/12:00am 15.5 17.1 14.8 96 0.4 CALM 0 7 0 4 1016.5 1016.5 0.0
 
Date/Time
EST
Temp
°C
App
Temp
°C
Dew
Point
Rel
Hum
%
Delta-T
°C
Wind Press
QNH
hPa
Press
MSL
hPa
Rain
since 9 am
mm
Dir
 
Spd
km/h
Gust
km/h
Spd
kts
Gust
kts
03/11:30pm 15.8 16.1 14.9 94 0.5 WNW 7 9 4 5 1016.7 - 0.0
03/11:00pm 16.0 17.6 15.0 94 0.6 CALM 0 0 0 0 1016.7 - 0.0
03/10:30pm 17.1 18.3 15.9 93 0.7 WNW 4 7 2 4 1016.8 - 0.0
03/10:00pm 17.0 17.6 15.8 93 0.7 NNW 7 7 4 4 1016.7 - 0.0
03/09:30pm 19.3 20.3 16.8 85 1.5 SW 7 11 4 6 1016.8 - 0.0
03/09:00pm 19.3 21.2 16.6 84 1.6 E 2 6 1 3 1016.7 1016.7 0.0
03/08:30pm 19.2 20.1 16.2 83 1.8 ENE 6 9 3 5 1016.9 - 0.0
03/08:00pm 19.1 21.0 16.8 86 1.4 NE 2 9 1 5 1016.8 - 0.0
03/07:30pm 19.5 22.0 17.2 86 1.4 CALM 0 0 0 0 1016.6 - 0.0
03/07:00pm 20.3 21.6 17.2 82 1.9 ENE 6 9 3 5 1016.3 - 0.0
03/06:30pm 21.3 22.2 16.7 75 2.8 E 7 11 4 6 1016.1 - 0.0
03/06:00pm 22.3 22.3 16.2 68 3.7 ESE 11 17 6 9 1016.2 1016.1 0.0
03/05:30pm 23.6 23.1 16.0 62 4.6 ESE 13 19 7 10 1016.1 - 0.0
03/05:00pm 24.4 23.2 16.0 59 5.1 ESE 17 22 9 12 1016.0 - 0.0
03/04:30pm 25.2 24.0 16.0 56 5.6 E 17 26 9 14 1015.9 - 0.0
03/04:00pm 25.8 24.0 15.4 52 6.3 ESE 19 26 10 14 1015.7 - 0.0
03/03:30pm 25.7 23.6 14.7 50 6.6 ESE 19 28 10 15 1015.8 - 0.0
03/03:00pm 26.0 23.5 14.2 48 7.0 ESE 20 26 11 14 1015.6 1015.6 0.0
03/02:30pm 25.8 22.9 12.9 44 7.5 ESE 20 30 11 16 1015.8 - 0.0
03/02:00pm 26.4 23.6 14.3 47 7.2 ESE 22 30 12 16 1016.2 - 0.0
03/01:30pm 25.7 23.0 13.6 47 7.1 ESE 20 32 11 17 1016.6 - 0.0
03/01:00pm 26.0 23.7 14.2 48 7.0 SE 19 30 10 16 1016.8 - 0.0
03/12:30pm 26.5 24.5 14.9 49 7.0 ESE 19 30 10 16 1017.2 - 0.0
03/12:00pm 25.6 22.9 14.5 50 6.6 ESE 22 33 12 18 1017.8 1017.8 0.0
03/11:30am 25.7 23.6 15.2 52 6.3 SSE 20 32 11 17 1018.2 - 0.0
03/11:00am 25.5 22.9 15.8 55 5.9 ESE 24 33 13 18 1018.4 - 0.0
03/10:30am 24.4 23.2 17.1 63 4.5 SE 19 32 10 17 1018.7 - 0.0
03/10:00am 24.3 22.8 17.7 66 4.1 SE 22 32 12 17 1019.0 - 0.0
03/09:30am 24.4 24.3 18.7 70 3.6 SE 17 24 9 13 1019.0 - 0.0
03/09:00am 23.4 23.3 18.8 75 2.9 SE 17 22 9 12 1018.8 1018.7 0.0
03/08:30am 22.0 24.2 19.2 84 1.8 S 6 13 3 7 1018.4 - 0.0
03/08:00am 18.6 20.1 17.6 94 0.6 W 6 7 3 4 1018.2 - 0.0
03/07:30am 16.7 17.5 15.8 94 0.5 WNW 6 7 3 4 1017.9 - 0.0
03/07:00am 15.8 16.4 15.3 97 0.3 WNW 6 9 3 5 1017.6 - 0.0
03/06:30am 15.8 16.2 15.3 97 0.3 WNW 7 9 4 5 1017.4 - 0.0
03/06:00am 16.4 17.1 16.1 98 0.2 WNW 7 9 4 5 1017.1 1017.1 0.0
03/05:30am 16.3 17.1 15.8 97 0.3 WNW 6 9 3 5 1016.9 - 0.0
03/05:00am 17.0 18.0 16.3 96 0.4 W 6 7 3 4 1016.8 - 0.0
03/04:30am 17.3 19.8 17.3 100 0.0 CALM 0 0 0 0 1016.8 - 0.0
03/04:00am 19.3 21.4 19.3 100 0.0 SSW 7 9 4 5 1016.7 - 0.0
03/03:30am 20.3 22.8 20.3 100 0.0 S 7 11 4 6 1016.8 - 0.0
03/03:00am 21.1 22.8 20.9 99 0.1 SE 13 22 7 12 1017.0 1017.0 0.0
03/02:30am 21.2 22.6 21.0 99 0.1 ESE 15 22 8 12 1017.0 - 0.0
03/02:00am 21.5 23.0 21.3 99 0.1 SE 15 20 8 11 1017.3 - 0.0
03/01:30am 21.5 23.4 21.3 99 0.1 SE 13 24 7 13 1017.6 - 0.0
03/01:00am 20.6 22.8 20.4 99 0.1 SE 9 19 5 10 1017.9 - 0.0
03/12:30am 19.6 21.8 19.6 100 0.0 SSE 7 13 4 7 1018.1 - 0.0
03/12:00am 19.9 21.9 19.9 100 0.0 SSE 9 11 5 6 1018.3 1018.3 0.0
 
Date/Time
EST
Temp
°C
App
Temp
°C
Dew
Point
Rel
Hum
%
Delta-T
°C
Wind Press
QNH
hPa
Press
MSL
hPa
Rain
since 9 am
mm
Dir
 
Spd
km/h
Gust
km/h
Spd
kts
Gust
kts
02/11:30pm 20.1 22.1 19.9 99 0.1 S 9 13 5 7 1018.6 - 0.0
02/11:00pm 20.0 22.4 20.0 100 0.0 S 7 13 4 7 1018.6 - 0.0
02/10:30pm 19.8 22.0 19.6 99 0.1 S 7 9 4 5 1018.6 - 0.0
02/10:00pm 19.8 22.0 19.6 99 0.1 S 7 9 4 5 1018.4 - 0.0
02/09:30pm 18.5 21.5 18.5 100 0.0 CALM 0 0 0 0 1018.4 - 0.0
02/09:00pm 19.7 22.9 19.7 100 0.0 S 2 6 1 3 1018.3 1018.3 0.0
02/08:30pm 20.7 23.4 20.7 100 0.0 SSE 7 11 4 6 1018.1 - 0.0
02/08:00pm 21.4 23.7 21.4 100 0.0 SSE 11 15 6 8 1017.9 - 0.0
02/07:30pm 21.9 24.1 21.9 100 0.0 SE 13 19 7 10 1017.4 - 0.0
02/07:00pm 21.7 24.2 21.7 100 0.0 SSE 11 13 6 7 1017.0 - 0.0
02/06:30pm 22.6 25.6 22.6 100 0.0 SE 11 20 6 11 1016.8 - 0.0
02/06:00pm 23.3 25.7 23.0 98 0.2 SE 15 24 8 13 1016.7 1016.7 0.0
02/05:30pm 24.0 26.6 24.0 100 0.0 SE 17 24 9 13 1016.5 - 0.0
02/05:00pm 24.6 27.1 24.5 99 0.1 SE 19 30 10 16 1016.3 - 0.0
02/04:30pm 25.1 27.4 25.0 99 0.1 SE 22 35 12 19 1016.3 - 0.0
02/04:00pm 25.4 27.9 25.3 99 0.1 SE 22 35 12 19 1016.2 - 0.0
02/03:30pm 26.0 29.3 25.7 98 0.2 SE 19 32 10 17 1016.5 - 0.0
02/03:00pm 25.8 28.5 25.7 99 0.1 SE 22 33 12 18 1016.7 1016.7 0.0
02/02:30pm 25.2 27.9 25.1 99 0.1 SE 20 33 11 18 1017.1 - 0.0
02/02:00pm 26.1 28.5 25.8 98 0.2 ESE 24 39 13 21 1017.4 - 0.0
02/01:30pm 25.8 25.9 21.1 75 3.1 SE 22 39 12 21 1017.7 - 0.0
02/01:00pm 25.0 23.0 17.4 62 4.7 ESE 24 41 13 22 1018.1 - 0.0
02/12:30pm 24.7 21.9 17.3 63 4.6 ESE 28 39 15 21 1018.5 - 0.0

Other Formats:

Comma delimited format used in spreadsheet applications
http://www.bom.gov.au/fwo/IDQ60801/IDQ60801.95283.axf

JavaScript Object Notation format (JSON) in row-major order
http://www.bom.gov.au/fwo/IDQ60801/IDQ60801.95283.json